sensor_id;sensor_type;location;lat;lon;timestamp;temperature;humidity
57566;DHT22;63999;43.882;-0.310;2023-08-06T00:00:23;20.80;76.10
57566;DHT22;63999;43.882;-0.310;2023-08-06T00:02:49;20.80;76.10
57566;DHT22;63999;43.882;-0.310;2023-08-06T00:05:15;20.80;76.80
57566;DHT22;63999;43.882;-0.310;2023-08-06T00:07:47;20.80;76.20
57566;DHT22;63999;43.882;-0.310;2023-08-06T00:10:12;20.80;76.20
57566;DHT22;63999;43.882;-0.310;2023-08-06T00:12:38;20.80;76.20
57566;DHT22;63999;43.882;-0.310;2023-08-06T00:15:04;20.80;76.10
57566;DHT22;63999;43.882;-0.310;2023-08-06T00:17:30;20.70;76.20
57566;DHT22;63999;43.882;-0.310;2023-08-06T00:19:56;20.70;76.10
57566;DHT22;63999;43.882;-0.310;2023-08-06T00:22:21;20.70;76.10
57566;DHT22;63999;43.882;-0.310;2023-08-06T00:24:47;20.70;76.00
57566;DHT22;63999;43.882;-0.310;2023-08-06T00:27:13;20.70;76.00
57566;DHT22;63999;43.882;-0.310;2023-08-06T00:29:39;20.70;76.00
57566;DHT22;63999;43.882;-0.310;2023-08-06T00:32:04;20.60;76.00
57566;DHT22;63999;43.882;-0.310;2023-08-06T00:34:30;20.60;76.00
57566;DHT22;63999;43.882;-0.310;2023-08-06T00:36:56;20.60;76.10
57566;DHT22;63999;43.882;-0.310;2023-08-06T00:39:21;20.60;76.00
57566;DHT22;63999;43.882;-0.310;2023-08-06T00:41:48;20.60;76.00
57566;DHT22;63999;43.882;-0.310;2023-08-06T00:44:14;20.60;76.00
57566;DHT22;63999;43.882;-0.310;2023-08-06T00:46:40;20.60;76.20
57566;DHT22;63999;43.882;-0.310;2023-08-06T00:49:06;20.50;76.00
57566;DHT22;63999;43.882;-0.310;2023-08-06T00:51:32;20.60;76.00
57566;DHT22;63999;43.882;-0.310;2023-08-06T00:53:58;20.50;76.00
57566;DHT22;63999;43.882;-0.310;2023-08-06T00:56:24;20.50;76.00
57566;DHT22;63999;43.882;-0.310;2023-08-06T00:58:51;20.50;76.00
57566;DHT22;63999;43.882;-0.310;2023-08-06T01:01:17;20.50;75.90
57566;DHT22;63999;43.882;-0.310;2023-08-06T01:03:43;20.50;75.90
57566;DHT22;63999;43.882;-0.310;2023-08-06T01:06:09;20.50;75.90
57566;DHT22;63999;43.882;-0.310;2023-08-06T01:11:21;20.50;75.90
57566;DHT22;63999;43.882;-0.310;2023-08-06T01:13:59;20.50;75.90
57566;DHT22;63999;43.882;-0.310;2023-08-06T01:16:28;20.50;75.80
57566;DHT22;63999;43.882;-0.310;2023-08-06T01:18:58;20.50;75.80
57566;DHT22;63999;43.882;-0.310;2023-08-06T01:21:23;20.50;75.70
57566;DHT22;63999;43.882;-0.310;2023-08-06T01:23:49;20.40;75.70
57566;DHT22;63999;43.882;-0.310;2023-08-06T01:26:30;20.40;75.70
57566;DHT22;63999;43.882;-0.310;2023-08-06T01:29:19;20.40;75.70
57566;DHT22;63999;43.882;-0.310;2023-08-06T01:31:50;20.40;75.60
57566;DHT22;63999;43.882;-0.310;2023-08-06T01:34:20;20.40;75.80
57566;DHT22;63999;43.882;-0.310;2023-08-06T01:36:46;20.30;75.70
57566;DHT22;63999;43.882;-0.310;2023-08-06T01:39:13;20.40;75.70
57566;DHT22;63999;43.882;-0.310;2023-08-06T01:41:38;20.30;75.60
57566;DHT22;63999;43.882;-0.310;2023-08-06T01:44:04;20.30;75.60
57566;DHT22;63999;43.882;-0.310;2023-08-06T01:46:30;20.30;75.60
57566;DHT22;63999;43.882;-0.310;2023-08-06T01:48:56;20.30;75.60
57566;DHT22;63999;43.882;-0.310;2023-08-06T01:51:21;20.30;75.70
57566;DHT22;63999;43.882;-0.310;2023-08-06T01:53:47;20.30;75.70
57566;DHT22;63999;43.882;-0.310;2023-08-06T01:56:13;20.30;75.60
57566;DHT22;63999;43.882;-0.310;2023-08-06T01:58:38;20.30;75.60
57566;DHT22;63999;43.882;-0.310;2023-08-06T02:01:04;20.20;75.60
57566;DHT22;63999;43.882;-0.310;2023-08-06T02:03:30;20.20;75.50
57566;DHT22;63999;43.882;-0.310;2023-08-06T02:05:56;20.20;75.70
57566;DHT22;63999;43.882;-0.310;2023-08-06T02:08:22;20.10;75.60
57566;DHT22;63999;43.882;-0.310;2023-08-06T02:10:48;20.10;75.50
57566;DHT22;63999;43.882;-0.310;2023-08-06T02:13:13;20.10;75.50
57566;DHT22;63999;43.882;-0.310;2023-08-06T02:15:43;20.10;75.50
57566;DHT22;63999;43.882;-0.310;2023-08-06T02:18:09;20.10;75.60
57566;DHT22;63999;43.882;-0.310;2023-08-06T02:20:35;20.10;75.50
57566;DHT22;63999;43.882;-0.310;2023-08-06T02:23:00;20.10;75.50
57566;DHT22;63999;43.882;-0.310;2023-08-06T02:25:26;20.00;75.40
57566;DHT22;63999;43.882;-0.310;2023-08-06T02:27:52;20.00;75.50
57566;DHT22;63999;43.882;-0.310;2023-08-06T02:30:17;20.00;75.50
57566;DHT22;63999;43.882;-0.310;2023-08-06T02:32:44;20.00;75.50
57566;DHT22;63999;43.882;-0.310;2023-08-06T02:35:09;20.00;75.50
57566;DHT22;63999;43.882;-0.310;2023-08-06T02:37:36;20.00;75.50
57566;DHT22;63999;43.882;-0.310;2023-08-06T02:40:02;20.00;75.50
57566;DHT22;63999;43.882;-0.310;2023-08-06T02:42:28;20.00;75.50
57566;DHT22;63999;43.882;-0.310;2023-08-06T02:44:54;20.00;75.50
57566;DHT22;63999;43.882;-0.310;2023-08-06T02:47:20;20.00;75.50
57566;DHT22;63999;43.882;-0.310;2023-08-06T02:49:46;20.00;75.50
57566;DHT22;63999;43.882;-0.310;2023-08-06T02:52:12;20.00;75.70
57566;DHT22;63999;43.882;-0.310;2023-08-06T02:54:38;20.00;75.60
57566;DHT22;63999;43.882;-0.310;2023-08-06T02:57:05;20.00;75.60
57566;DHT22;63999;43.882;-0.310;2023-08-06T02:59:31;20.00;75.70
57566;DHT22;63999;43.882;-0.310;2023-08-06T03:01:57;20.00;75.60
57566;DHT22;63999;43.882;-0.310;2023-08-06T03:04:23;19.90;75.60
57566;DHT22;63999;43.882;-0.310;2023-08-06T03:06:51;19.90;75.70
57566;DHT22;63999;43.882;-0.310;2023-08-06T03:09:17;19.90;75.70
57566;DHT22;63999;43.882;-0.310;2023-08-06T03:11:43;19.90;75.70
57566;DHT22;63999;43.882;-0.310;2023-08-06T03:14:09;19.90;75.70
57566;DHT22;63999;43.882;-0.310;2023-08-06T03:16:35;19.90;75.70
57566;DHT22;63999;43.882;-0.310;2023-08-06T03:19:01;19.90;75.50
57566;DHT22;63999;43.882;-0.310;2023-08-06T03:21:27;19.90;75.70
57566;DHT22;63999;43.882;-0.310;2023-08-06T03:23:53;19.90;75.60
57566;DHT22;63999;43.882;-0.310;2023-08-06T03:26:18;19.80;75.60
57566;DHT22;63999;43.882;-0.310;2023-08-06T03:28:44;19.80;75.70
57566;DHT22;63999;43.882;-0.310;2023-08-06T03:31:10;19.80;75.70
57566;DHT22;63999;43.882;-0.310;2023-08-06T03:33:36;19.80;75.70
57566;DHT22;63999;43.882;-0.310;2023-08-06T03:36:02;19.70;75.70
57566;DHT22;63999;43.882;-0.310;2023-08-06T03:38:27;19.70;75.70
57566;DHT22;63999;43.882;-0.310;2023-08-06T03:40:53;19.70;75.70
57566;DHT22;63999;43.882;-0.310;2023-08-06T03:43:19;19.70;75.80
57566;DHT22;63999;43.882;-0.310;2023-08-06T03:45:45;19.70;75.70
57566;DHT22;63999;43.882;-0.310;2023-08-06T03:48:11;19.70;75.80
57566;DHT22;63999;43.882;-0.310;2023-08-06T03:50:36;19.70;75.70
57566;DHT22;63999;43.882;-0.310;2023-08-06T03:53:03;19.70;75.70
57566;DHT22;63999;43.882;-0.310;2023-08-06T03:55:29;19.70;75.80
57566;DHT22;63999;43.882;-0.310;2023-08-06T03:57:55;19.70;75.90
57566;DHT22;63999;43.882;-0.310;2023-08-06T04:00:20;19.70;75.80
57566;DHT22;63999;43.882;-0.310;2023-08-06T04:02:46;19.70;75.80
57566;DHT22;63999;43.882;-0.310;2023-08-06T04:05:12;19.60;75.90
57566;DHT22;63999;43.882;-0.310;2023-08-06T04:07:38;19.60;75.80
57566;DHT22;63999;43.882;-0.310;2023-08-06T04:10:04;19.60;75.90
57566;DHT22;63999;43.882;-0.310;2023-08-06T04:12:30;19.60;75.90
57566;DHT22;63999;43.882;-0.310;2023-08-06T04:14:58;19.60;75.90
57566;DHT22;63999;43.882;-0.310;2023-08-06T04:17:24;19.60;76.00
57566;DHT22;63999;43.882;-0.310;2023-08-06T04:19:51;19.60;76.00
57566;DHT22;63999;43.882;-0.310;2023-08-06T04:22:18;19.50;76.10
57566;DHT22;63999;43.882;-0.310;2023-08-06T04:24:44;19.50;76.10
57566;DHT22;63999;43.882;-0.310;2023-08-06T04:27:11;19.50;76.10
57566;DHT22;63999;43.882;-0.310;2023-08-06T04:29:37;19.50;76.10
57566;DHT22;63999;43.882;-0.310;2023-08-06T04:32:05;19.50;76.10
57566;DHT22;63999;43.882;-0.310;2023-08-06T04:34:30;19.50;76.20
57566;DHT22;63999;43.882;-0.310;2023-08-06T04:36:56;19.50;76.20
57566;DHT22;63999;43.882;-0.310;2023-08-06T04:39:22;19.50;76.20
57566;DHT22;63999;43.882;-0.310;2023-08-06T04:41:48;19.50;76.30
57566;DHT22;63999;43.882;-0.310;2023-08-06T04:44:13;19.50;76.20
57566;DHT22;63999;43.882;-0.310;2023-08-06T04:46:39;19.50;76.20
57566;DHT22;63999;43.882;-0.310;2023-08-06T04:49:05;19.50;76.20
57566;DHT22;63999;43.882;-0.310;2023-08-06T04:51:30;19.50;76.20
57566;DHT22;63999;43.882;-0.310;2023-08-06T04:53:57;19.50;76.30
57566;DHT22;63999;43.882;-0.310;2023-08-06T04:56:23;19.50;76.20
57566;DHT22;63999;43.882;-0.310;2023-08-06T04:58:49;19.50;76.20
57566;DHT22;63999;43.882;-0.310;2023-08-06T05:01:15;19.50;76.30
57566;DHT22;63999;43.882;-0.310;2023-08-06T05:03:41;19.40;76.30
57566;DHT22;63999;43.882;-0.310;2023-08-06T05:06:06;19.40;76.40
57566;DHT22;63999;43.882;-0.310;2023-08-06T05:08:32;19.40;76.40
57566;DHT22;63999;43.882;-0.310;2023-08-06T05:10:58;19.40;76.40
57566;DHT22;63999;43.882;-0.310;2023-08-06T05:13:23;19.40;76.40
57566;DHT22;63999;43.882;-0.310;2023-08-06T05:15:50;19.40;76.40
57566;DHT22;63999;43.882;-0.310;2023-08-06T05:18:16;19.40;76.40
57566;DHT22;63999;43.882;-0.310;2023-08-06T05:20:42;19.40;76.40
57566;DHT22;63999;43.882;-0.310;2023-08-06T05:23:08;19.40;76.40
57566;DHT22;63999;43.882;-0.310;2023-08-06T05:25:35;19.40;76.30
57566;DHT22;63999;43.882;-0.310;2023-08-06T05:28:01;19.30;76.50
57566;DHT22;63999;43.882;-0.310;2023-08-06T05:30:28;19.30;76.50
57566;DHT22;63999;43.882;-0.310;2023-08-06T05:32:53;19.30;76.50
57566;DHT22;63999;43.882;-0.310;2023-08-06T05:35:21;19.30;76.50
57566;DHT22;63999;43.882;-0.310;2023-08-06T05:37:47;19.30;76.50
57566;DHT22;63999;43.882;-0.310;2023-08-06T05:40:13;19.30;76.60
57566;DHT22;63999;43.882;-0.310;2023-08-06T05:42:40;19.30;76.60
57566;DHT22;63999;43.882;-0.310;2023-08-06T05:45:06;19.30;76.60
57566;DHT22;63999;43.882;-0.310;2023-08-06T05:47:32;19.30;76.60
57566;DHT22;63999;43.882;-0.310;2023-08-06T05:49:58;19.30;76.60
57566;DHT22;63999;43.882;-0.310;2023-08-06T05:52:24;19.30;76.60
57566;DHT22;63999;43.882;-0.310;2023-08-06T05:54:50;19.30;76.50
57566;DHT22;63999;43.882;-0.310;2023-08-06T05:57:16;19.30;76.60
57566;DHT22;63999;43.882;-0.310;2023-08-06T05:59:42;19.30;76.50
57566;DHT22;63999;43.882;-0.310;2023-08-06T06:02:08;19.30;76.60
57566;DHT22;63999;43.882;-0.310;2023-08-06T06:04:34;19.30;76.60
57566;DHT22;63999;43.882;-0.310;2023-08-06T06:07:00;19.30;76.50
57566;DHT22;63999;43.882;-0.310;2023-08-06T06:09:25;19.30;76.60
57566;DHT22;63999;43.882;-0.310;2023-08-06T06:11:51;19.30;76.70
57566;DHT22;63999;43.882;-0.310;2023-08-06T06:14:18;19.30;76.80
57566;DHT22;63999;43.882;-0.310;2023-08-06T06:16:44;19.30;76.70
57566;DHT22;63999;43.882;-0.310;2023-08-06T06:19:10;19.30;76.70
57566;DHT22;63999;43.882;-0.310;2023-08-06T06:21:36;19.30;76.70
57566;DHT22;63999;43.882;-0.310;2023-08-06T06:24:04;19.30;76.70
57566;DHT22;63999;43.882;-0.310;2023-08-06T06:26:31;19.30;76.80
57566;DHT22;63999;43.882;-0.310;2023-08-06T06:28:57;19.30;76.70
57566;DHT22;63999;43.882;-0.310;2023-08-06T06:31:23;19.30;76.70
57566;DHT22;63999;43.882;-0.310;2023-08-06T06:33:49;19.30;76.70
57566;DHT22;63999;43.882;-0.310;2023-08-06T06:36:15;19.30;76.80
57566;DHT22;63999;43.882;-0.310;2023-08-06T06:38:40;19.30;76.70
57566;DHT22;63999;43.882;-0.310;2023-08-06T06:41:06;19.30;76.80
57566;DHT22;63999;43.882;-0.310;2023-08-06T06:43:32;19.30;76.70
57566;DHT22;63999;43.882;-0.310;2023-08-06T06:46:01;19.30;76.60
57566;DHT22;63999;43.882;-0.310;2023-08-06T06:48:29;19.30;76.70
57566;DHT22;63999;43.882;-0.310;2023-08-06T06:50:55;19.30;76.70
57566;DHT22;63999;43.882;-0.310;2023-08-06T06:53:21;19.30;76.80
57566;DHT22;63999;43.882;-0.310;2023-08-06T06:56:00;19.30;76.70
57566;DHT22;63999;43.882;-0.310;2023-08-06T06:58:26;19.30;76.90
57566;DHT22;63999;43.882;-0.310;2023-08-06T07:00:52;19.40;77.00
57566;DHT22;63999;43.882;-0.310;2023-08-06T07:03:20;19.40;76.50
57566;DHT22;63999;43.882;-0.310;2023-08-06T07:05:45;19.40;76.50
57566;DHT22;63999;43.882;-0.310;2023-08-06T07:08:11;19.40;76.50
57566;DHT22;63999;43.882;-0.310;2023-08-06T07:10:37;19.40;76.30
57566;DHT22;63999;43.882;-0.310;2023-08-06T07:13:03;19.40;76.30
57566;DHT22;63999;43.882;-0.310;2023-08-06T07:15:29;19.30;76.40
57566;DHT22;63999;43.882;-0.310;2023-08-06T07:17:55;19.30;76.30
57566;DHT22;63999;43.882;-0.310;2023-08-06T07:20:20;19.30;76.30
57566;DHT22;63999;43.882;-0.310;2023-08-06T07:22:46;19.30;76.20
57566;DHT22;63999;43.882;-0.310;2023-08-06T07:25:12;19.30;76.30
57566;DHT22;63999;43.882;-0.310;2023-08-06T07:27:39;19.30;76.30
57566;DHT22;63999;43.882;-0.310;2023-08-06T07:30:08;19.30;76.20
57566;DHT22;63999;43.882;-0.310;2023-08-06T07:32:34;19.30;76.20
57566;DHT22;63999;43.882;-0.310;2023-08-06T07:35:00;19.30;76.40
57566;DHT22;63999;43.882;-0.310;2023-08-06T07:37:26;19.30;76.30
57566;DHT22;63999;43.882;-0.310;2023-08-06T07:39:56;19.40;76.20
57566;DHT22;63999;43.882;-0.310;2023-08-06T07:42:22;19.40;76.40
57566;DHT22;63999;43.882;-0.310;2023-08-06T07:44:58;19.40;76.30
57566;DHT22;63999;43.882;-0.310;2023-08-06T07:47:24;19.30;76.20
57566;DHT22;63999;43.882;-0.310;2023-08-06T07:49:52;19.40;76.20
57566;DHT22;63999;43.882;-0.310;2023-08-06T07:52:18;19.40;76.20
57566;DHT22;63999;43.882;-0.310;2023-08-06T07:54:43;19.40;76.10
57566;DHT22;63999;43.882;-0.310;2023-08-06T07:57:09;19.40;76.10
57566;DHT22;63999;43.882;-0.310;2023-08-06T07:59:35;19.40;76.00
57566;DHT22;63999;43.882;-0.310;2023-08-06T08:02:01;19.40;76.20
57566;DHT22;63999;43.882;-0.310;2023-08-06T08:04:27;19.50;76.30
57566;DHT22;63999;43.882;-0.310;2023-08-06T08:06:53;19.50;76.10
57566;DHT22;63999;43.882;-0.310;2023-08-06T08:09:18;19.50;76.20
57566;DHT22;63999;43.882;-0.310;2023-08-06T08:11:45;19.50;76.50
57566;DHT22;63999;43.882;-0.310;2023-08-06T08:14:11;19.50;76.30
57566;DHT22;63999;43.882;-0.310;2023-08-06T08:16:36;19.60;76.20
57566;DHT22;63999;43.882;-0.310;2023-08-06T08:19:02;19.70;76.80
57566;DHT22;63999;43.882;-0.310;2023-08-06T08:21:29;19.70;76.40
57566;DHT22;63999;43.882;-0.310;2023-08-06T08:23:55;19.70;76.40
57566;DHT22;63999;43.882;-0.310;2023-08-06T08:26:20;19.70;76.20
57566;DHT22;63999;43.882;-0.310;2023-08-06T08:28:46;19.70;76.20
57566;DHT22;63999;43.882;-0.310;2023-08-06T08:31:12;19.70;76.50
57566;DHT22;63999;43.882;-0.310;2023-08-06T08:33:38;19.70;76.20
57566;DHT22;63999;43.882;-0.310;2023-08-06T08:36:04;19.80;76.80
57566;DHT22;63999;43.882;-0.310;2023-08-06T08:38:30;19.90;76.40
57566;DHT22;63999;43.882;-0.310;2023-08-06T08:40:55;19.90;76.60
57566;DHT22;63999;43.882;-0.310;2023-08-06T08:43:22;20.00;76.40
57566;DHT22;63999;43.882;-0.310;2023-08-06T08:45:52;20.00;76.50
57566;DHT22;63999;43.882;-0.310;2023-08-06T08:48:20;20.00;76.40
57566;DHT22;63999;43.882;-0.310;2023-08-06T08:50:47;20.00;76.40
57566;DHT22;63999;43.882;-0.310;2023-08-06T08:53:15;20.10;76.20
57566;DHT22;63999;43.882;-0.310;2023-08-06T08:55:43;20.10;76.00
57566;DHT22;63999;43.882;-0.310;2023-08-06T08:58:10;20.10;75.90
57566;DHT22;63999;43.882;-0.310;2023-08-06T09:00:36;20.20;75.70
57566;DHT22;63999;43.882;-0.310;2023-08-06T09:03:06;20.20;76.10
57566;DHT22;63999;43.882;-0.310;2023-08-06T09:05:35;20.30;76.40
57566;DHT22;63999;43.882;-0.310;2023-08-06T09:08:05;20.30;76.20
57566;DHT22;63999;43.882;-0.310;2023-08-06T09:10:31;20.30;76.20
57566;DHT22;63999;43.882;-0.310;2023-08-06T09:12:57;20.30;75.90
57566;DHT22;63999;43.882;-0.310;2023-08-06T09:15:26;20.30;76.00
57566;DHT22;63999;43.882;-0.310;2023-08-06T09:17:53;20.30;76.10
57566;DHT22;63999;43.882;-0.310;2023-08-06T09:20:19;20.30;76.20
57566;DHT22;63999;43.882;-0.310;2023-08-06T09:22:45;20.30;76.20
57566;DHT22;63999;43.882;-0.310;2023-08-06T09:25:21;20.30;76.30
57566;DHT22;63999;43.882;-0.310;2023-08-06T09:27:50;20.30;76.00
57566;DHT22;63999;43.882;-0.310;2023-08-06T09:30:33;20.30;75.40
57566;DHT22;63999;43.882;-0.310;2023-08-06T09:32:59;20.30;75.60
57566;DHT22;63999;43.882;-0.310;2023-08-06T09:35:28;20.30;75.80
57566;DHT22;63999;43.882;-0.310;2023-08-06T09:37:54;20.30;76.20
57566;DHT22;63999;43.882;-0.310;2023-08-06T09:42:55;20.40;76.10
57566;DHT22;63999;43.882;-0.310;2023-08-06T09:45:21;20.50;75.90
57566;DHT22;63999;43.882;-0.310;2023-08-06T09:47:50;20.50;75.90
57566;DHT22;63999;43.882;-0.310;2023-08-06T09:50:17;20.50;75.60
57566;DHT22;63999;43.882;-0.310;2023-08-06T09:52:44;20.50;75.40
57566;DHT22;63999;43.882;-0.310;2023-08-06T09:55:12;20.50;75.70
57566;DHT22;63999;43.882;-0.310;2023-08-06T09:57:38;20.50;75.60
57566;DHT22;63999;43.882;-0.310;2023-08-06T10:00:05;20.50;75.60
57566;DHT22;63999;43.882;-0.310;2023-08-06T10:02:34;20.50;75.80
57566;DHT22;63999;43.882;-0.310;2023-08-06T10:05:01;20.50;75.90
57566;DHT22;63999;43.882;-0.310;2023-08-06T10:07:30;20.50;75.40
57566;DHT22;63999;43.882;-0.310;2023-08-06T10:09:56;20.50;75.70
57566;DHT22;63999;43.882;-0.310;2023-08-06T10:12:23;20.50;75.30
57566;DHT22;63999;43.882;-0.310;2023-08-06T10:14:51;20.50;75.50
57566;DHT22;63999;43.882;-0.310;2023-08-06T10:17:22;20.50;75.70
57566;DHT22;63999;43.882;-0.310;2023-08-06T10:19:50;20.50;75.50
57566;DHT22;63999;43.882;-0.310;2023-08-06T10:22:17;20.50;75.30
57566;DHT22;63999;43.882;-0.310;2023-08-06T10:24:50;20.50;75.80
57566;DHT22;63999;43.882;-0.310;2023-08-06T10:27:40;20.60;75.70
57566;DHT22;63999;43.882;-0.310;2023-08-06T10:30:25;20.60;75.80
57566;DHT22;63999;43.882;-0.310;2023-08-06T10:32:53;20.60;75.70
57566;DHT22;63999;43.882;-0.310;2023-08-06T10:35:41;20.60;75.80
57566;DHT22;63999;43.882;-0.310;2023-08-06T10:43:33;20.60;75.10
57566;DHT22;63999;43.882;-0.310;2023-08-06T10:46:03;20.70;75.50
57566;DHT22;63999;43.882;-0.310;2023-08-06T10:48:39;20.70;75.90
57566;DHT22;63999;43.882;-0.310;2023-08-06T10:51:10;20.70;75.20
57566;DHT22;63999;43.882;-0.310;2023-08-06T10:53:36;20.70;75.50
57566;DHT22;63999;43.882;-0.310;2023-08-06T10:58:41;20.70;75.50
57566;DHT22;63999;43.882;-0.310;2023-08-06T11:01:06;20.70;75.40
57566;DHT22;63999;43.882;-0.310;2023-08-06T11:03:36;20.80;75.50
57566;DHT22;63999;43.882;-0.310;2023-08-06T11:06:02;20.80;75.30
57566;DHT22;63999;43.882;-0.310;2023-08-06T11:08:34;20.80;75.30
57566;DHT22;63999;43.882;-0.310;2023-08-06T11:11:14;20.80;74.70
57566;DHT22;63999;43.882;-0.310;2023-08-06T11:13:48;20.80;75.10
57566;DHT22;63999;43.882;-0.310;2023-08-06T11:16:19;20.80;75.30
57566;DHT22;63999;43.882;-0.310;2023-08-06T11:18:45;20.80;75.50
57566;DHT22;63999;43.882;-0.310;2023-08-06T11:21:11;20.80;75.30
57566;DHT22;63999;43.882;-0.310;2023-08-06T11:23:37;20.80;75.10
57566;DHT22;63999;43.882;-0.310;2023-08-06T11:26:04;20.80;75.30
57566;DHT22;63999;43.882;-0.310;2023-08-06T11:28:30;20.80;75.10
57566;DHT22;63999;43.882;-0.310;2023-08-06T11:30:56;20.80;74.90
57566;DHT22;63999;43.882;-0.310;2023-08-06T11:33:26;20.80;74.90
57566;DHT22;63999;43.882;-0.310;2023-08-06T11:35:55;20.80;75.10
57566;DHT22;63999;43.882;-0.310;2023-08-06T11:38:21;20.80;75.30
57566;DHT22;63999;43.882;-0.310;2023-08-06T11:40:50;20.80;75.20
57566;DHT22;63999;43.882;-0.310;2023-08-06T11:43:18;20.90;75.20
57566;DHT22;63999;43.882;-0.310;2023-08-06T11:45:44;20.90;75.00
57566;DHT22;63999;43.882;-0.310;2023-08-06T11:48:10;20.80;74.80
57566;DHT22;63999;43.882;-0.310;2023-08-06T11:50:39;20.80;75.00
57566;DHT22;63999;43.882;-0.310;2023-08-06T11:53:05;20.80;75.00
57566;DHT22;63999;43.882;-0.310;2023-08-06T11:55:31;20.80;74.50
57566;DHT22;63999;43.882;-0.310;2023-08-06T11:57:57;20.80;75.10
57566;DHT22;63999;43.882;-0.310;2023-08-06T12:00:25;20.80;75.10
57566;DHT22;63999;43.882;-0.310;2023-08-06T12:02:51;20.80;74.80
57566;DHT22;63999;43.882;-0.310;2023-08-06T12:05:18;20.80;75.00
57566;DHT22;63999;43.882;-0.310;2023-08-06T12:07:59;20.80;74.90
57566;DHT22;63999;43.882;-0.310;2023-08-06T12:10:26;20.80;75.40
57566;DHT22;63999;43.882;-0.310;2023-08-06T12:12:53;20.90;75.50
57566;DHT22;63999;43.882;-0.310;2023-08-06T12:15:19;20.90;75.40
57566;DHT22;63999;43.882;-0.310;2023-08-06T12:17:45;20.90;75.30
57566;DHT22;63999;43.882;-0.310;2023-08-06T12:20:11;20.90;75.60
57566;DHT22;63999;43.882;-0.310;2023-08-06T12:22:37;21.00;75.20
57566;DHT22;63999;43.882;-0.310;2023-08-06T12:25:06;20.90;74.60
57566;DHT22;63999;43.882;-0.310;2023-08-06T12:27:40;20.90;74.60
57566;DHT22;63999;43.882;-0.310;2023-08-06T12:30:07;20.90;74.90
57566;DHT22;63999;43.882;-0.310;2023-08-06T12:32:33;20.90;75.10
57566;DHT22;63999;43.882;-0.310;2023-08-06T12:34:59;20.90;75.30
57566;DHT22;63999;43.882;-0.310;2023-08-06T12:37:26;21.00;74.80
57566;DHT22;63999;43.882;-0.310;2023-08-06T12:39:52;21.00;74.60
57566;DHT22;63999;43.882;-0.310;2023-08-06T12:42:18;21.00;75.00
57566;DHT22;63999;43.882;-0.310;2023-08-06T12:44:44;21.00;75.10
57566;DHT22;63999;43.882;-0.310;2023-08-06T12:47:10;21.00;75.00
57566;DHT22;63999;43.882;-0.310;2023-08-06T12:49:36;21.00;75.00
57566;DHT22;63999;43.882;-0.310;2023-08-06T12:52:02;21.00;75.10
57566;DHT22;63999;43.882;-0.310;2023-08-06T12:54:30;21.10;75.00
57566;DHT22;63999;43.882;-0.310;2023-08-06T12:57:02;21.10;75.10
57566;DHT22;63999;43.882;-0.310;2023-08-06T12:59:28;21.10;75.00
57566;DHT22;63999;43.882;-0.310;2023-08-06T13:01:54;21.10;74.90
57566;DHT22;63999;43.882;-0.310;2023-08-06T13:04:20;21.10;75.00
57566;DHT22;63999;43.882;-0.310;2023-08-06T13:06:46;21.10;74.60
57566;DHT22;63999;43.882;-0.310;2023-08-06T13:09:12;21.10;73.50
57566;DHT22;63999;43.882;-0.310;2023-08-06T13:11:40;21.10;73.50
57566;DHT22;63999;43.882;-0.310;2023-08-06T13:14:07;21.10;74.20
57566;DHT22;63999;43.882;-0.310;2023-08-06T13:16:34;21.20;74.20
57566;DHT22;63999;43.882;-0.310;2023-08-06T13:19:00;21.20;74.30
57566;DHT22;63999;43.882;-0.310;2023-08-06T13:24:04;21.20;74.40
57566;DHT22;63999;43.882;-0.310;2023-08-06T13:26:30;21.20;74.60
57566;DHT22;63999;43.882;-0.310;2023-08-06T13:28:57;21.20;74.40
57566;DHT22;63999;43.882;-0.310;2023-08-06T13:31:24;21.30;74.60
57566;DHT22;63999;43.882;-0.310;2023-08-06T13:33:50;21.10;74.30
57566;DHT22;63999;43.882;-0.310;2023-08-06T13:36:16;21.10;74.80
57566;DHT22;63999;43.882;-0.310;2023-08-06T13:38:42;21.20;74.40
57566;DHT22;63999;43.882;-0.310;2023-08-06T13:41:08;21.20;73.70
57566;DHT22;63999;43.882;-0.310;2023-08-06T13:43:34;21.20;74.20
57566;DHT22;63999;43.882;-0.310;2023-08-06T13:45:59;21.20;74.00
57566;DHT22;63999;43.882;-0.310;2023-08-06T13:48:25;21.30;74.30
57566;DHT22;63999;43.882;-0.310;2023-08-06T13:50:51;21.30;74.40
57566;DHT22;63999;43.882;-0.310;2023-08-06T13:53:20;21.30;74.10
57566;DHT22;63999;43.882;-0.310;2023-08-06T13:55:49;21.30;74.30
57566;DHT22;63999;43.882;-0.310;2023-08-06T13:58:19;21.30;73.90
57566;DHT22;63999;43.882;-0.310;2023-08-06T14:00:48;21.30;74.50
57566;DHT22;63999;43.882;-0.310;2023-08-06T14:03:16;21.30;74.40
57566;DHT22;63999;43.882;-0.310;2023-08-06T14:05:45;21.30;74.30
57566;DHT22;63999;43.882;-0.310;2023-08-06T14:08:17;21.30;74.50
57566;DHT22;63999;43.882;-0.310;2023-08-06T14:10:49;21.30;74.60
57566;DHT22;63999;43.882;-0.310;2023-08-06T14:13:17;21.30;74.30
57566;DHT22;63999;43.882;-0.310;2023-08-06T14:15:44;21.30;74.30
57566;DHT22;63999;43.882;-0.310;2023-08-06T14:18:13;21.30;74.30
57566;DHT22;63999;43.882;-0.310;2023-08-06T14:20:39;21.30;74.20
57566;DHT22;63999;43.882;-0.310;2023-08-06T14:23:04;21.30;74.50
57566;DHT22;63999;43.882;-0.310;2023-08-06T14:25:30;21.30;74.60
57566;DHT22;63999;43.882;-0.310;2023-08-06T14:27:58;21.30;74.50
57566;DHT22;63999;43.882;-0.310;2023-08-06T14:30:26;21.40;74.50
57566;DHT22;63999;43.882;-0.310;2023-08-06T14:32:52;21.40;74.50
57566;DHT22;63999;43.882;-0.310;2023-08-06T14:35:17;21.40;73.60
57566;DHT22;63999;43.882;-0.310;2023-08-06T14:37:43;21.30;74.10
57566;DHT22;63999;43.882;-0.310;2023-08-06T14:40:11;21.30;74.10
57566;DHT22;63999;43.882;-0.310;2023-08-06T14:42:37;21.30;74.30
57566;DHT22;63999;43.882;-0.310;2023-08-06T14:45:03;21.30;74.40
57566;DHT22;63999;43.882;-0.310;2023-08-06T14:47:29;21.30;74.40
57566;DHT22;63999;43.882;-0.310;2023-08-06T14:49:55;21.40;74.20
57566;DHT22;63999;43.882;-0.310;2023-08-06T14:52:23;21.40;74.50
57566;DHT22;63999;43.882;-0.310;2023-08-06T14:54:49;21.40;74.40
57566;DHT22;63999;43.882;-0.310;2023-08-06T14:57:18;21.40;74.50
57566;DHT22;63999;43.882;-0.310;2023-08-06T14:59:43;21.40;74.40
57566;DHT22;63999;43.882;-0.310;2023-08-06T15:02:09;21.40;74.30
57566;DHT22;63999;43.882;-0.310;2023-08-06T15:04:35;21.40;73.90
57566;DHT22;63999;43.882;-0.310;2023-08-06T15:07:00;21.40;73.90
57566;DHT22;63999;43.882;-0.310;2023-08-06T15:09:26;21.40;74.20
57566;DHT22;63999;43.882;-0.310;2023-08-06T15:11:52;21.40;74.50
57566;DHT22;63999;43.882;-0.310;2023-08-06T15:14:18;21.40;74.40
57566;DHT22;63999;43.882;-0.310;2023-08-06T15:16:46;21.40;73.70
57566;DHT22;63999;43.882;-0.310;2023-08-06T15:19:13;21.50;73.50
57566;DHT22;63999;43.882;-0.310;2023-08-06T15:21:39;21.50;73.90
57566;DHT22;63999;43.882;-0.310;2023-08-06T15:24:04;21.50;74.00
57566;DHT22;63999;43.882;-0.310;2023-08-06T15:26:32;21.50;74.20
57566;DHT22;63999;43.882;-0.310;2023-08-06T15:28:59;21.50;73.90